Time;durP1;ratioP1;P1;durP2;ratioP2;P2;SDS_P1;SDS_P2;PMS_P1;PMS_P2;Temp;Humidity;BMP_temperature;BMP_pressure;BME280_temperature;BME280_humidity;BME280_pressure;Samples;Min_cycle;Max_cycle;Signal;HPM_P1;HPM_P2
2024/03/23 00:00:03;;;;;;;4.90;2.42;;;;;;;9.61;100.00;95431.69;1030731;28;20535;-71
2024/03/23 00:00:34;;;;;;;3.28;2.42;;;;;;;9.60;100.00;95432.75;1034252;28;20026;-73
2024/03/23 00:01:06;;;;;;;5.53;2.53;;;;;;;9.57;100.00;95428.03;1035053;28;20027;-73
2024/03/23 00:01:38;;;;;;;3.10;2.17;;;;;;;9.63;100.00;95426.22;1030914;28;20026;-72
2024/03/23 00:02:10;;;;;;;4.70;2.78;;;;;;;9.64;100.00;95428.56;1030605;28;20105;-72
2024/03/23 00:02:41;;;;;;;6.00;2.60;;;;;;;9.64;100.00;95427.78;1031299;28;20085;-73
2024/03/23 00:03:12;;;;;;;5.57;2.38;;;;;;;9.63;100.00;95416.50;1035071;28;20022;-73
2024/03/23 00:03:44;;;;;;;4.22;2.50;;;;;;;9.65;100.00;95426.72;1040477;28;20040;-73
2024/03/23 00:04:15;;;;;;;7.68;2.25;;;;;;;9.62;100.00;95420.19;1042981;28;20163;-73
2024/03/23 00:04:47;;;;;;;5.10;2.53;;;;;;;9.65;100.00;95422.25;1038879;28;20514;-72
2024/03/23 00:05:18;;;;;;;3.58;2.58;;;;;;;9.64;100.00;95425.94;1034912;28;20010;-72
2024/03/23 00:05:50;;;;;;;4.07;2.55;;;;;;;9.68;100.00;95413.88;1030914;28;20475;-72
2024/03/23 00:06:21;;;;;;;3.83;2.60;;;;;;;9.74;100.00;95412.03;1031022;28;20026;-72
2024/03/23 00:06:53;;;;;;;7.30;2.90;;;;;;;9.72;100.00;95419.38;1034980;28;20152;-73
2024/03/23 00:07:24;;;;;;;5.03;2.88;;;;;;;9.71;100.00;95412.56;1026563;28;20023;-72
2024/03/23 00:07:58;;;;;;;2.80;2.28;;;;;;;9.74;100.00;95411.25;1031007;28;20022;-72
2024/03/23 00:08:30;;;;;;;4.50;2.30;;;;;;;9.71;100.00;95411.78;1032760;28;20025;-73
2024/03/23 00:09:01;;;;;;;3.72;2.30;;;;;;;9.68;100.00;95413.88;1031631;28;20104;-73
2024/03/23 00:09:33;;;;;;;3.28;2.30;;;;;;;9.68;100.00;95408.63;1039229;28;20017;-72
2024/03/23 00:10:04;;;;;;;5.57;2.33;;;;;;;9.66;100.00;95410.75;1038865;28;20057;-72
2024/03/23 00:10:36;;;;;;;5.40;2.70;;;;;;;9.63;100.00;95400.81;1030687;28;20026;-72
2024/03/23 00:11:08;;;;;;;3.55;2.22;;;;;;;9.62;100.00;95408.91;1030877;28;20041;-72
2024/03/23 00:11:39;;;;;;;3.22;2.08;;;;;;;9.60;100.00;95409.19;1030919;28;20055;-73
2024/03/23 00:12:11;;;;;;;3.30;2.00;;;;;;;9.59;100.00;95407.63;1030463;28;20113;-73
2024/03/23 00:12:42;;;;;;;4.57;2.20;;;;;;;9.64;100.00;95402.34;1035155;28;20103;-71
2024/03/23 00:13:14;;;;;;;2.72;1.90;;;;;;;9.66;100.00;95405.50;1035226;28;20102;-73
2024/03/23 00:13:45;;;;;;;2.63;2.17;;;;;;;9.64;100.00;95407.59;1030774;28;20089;-73
2024/03/23 00:14:16;;;;;;;3.03;2.30;;;;;;;9.64;100.00;95404.19;1030986;28;20706;-72
2024/03/23 00:14:48;;;;;;;4.00;2.00;;;;;;;9.66;100.00;95404.72;1031189;28;21208;-73
2024/03/23 00:15:19;;;;;;;5.00;2.65;;;;;;;9.70;100.00;95399.75;1034983;28;20069;-72
2024/03/23 00:15:51;;;;;;;5.90;2.47;;;;;;;9.70;100.00;95405.00;1038886;28;20104;-73
2024/03/23 00:16:24;;;;;;;5.10;2.15;;;;;;;9.73;100.00;95400.00;1031970;28;20476;-72
2024/03/23 00:16:56;;;;;;;2.80;2.03;;;;;;;9.75;100.00;95397.09;1030744;28;20057;-72
2024/03/23 00:17:27;;;;;;;3.13;1.95;;;;;;;9.78;100.00;95399.19;1034433;28;20495;-72
2024/03/23 00:17:59;;;;;;;3.10;2.22;;;;;;;9.78;100.00;95396.56;1034745;28;20045;-73
2024/03/23 00:18:30;;;;;;;4.38;2.17;;;;;;;9.76;100.00;95390.81;1029946;28;20022;-72
2024/03/23 00:19:06;;;;;;;5.43;2.20;;;;;;;9.73;100.00;95397.38;1026783;28;20035;-71
2024/03/23 00:19:37;;;;;;;4.22;2.42;;;;;;;9.79;100.00;95404.19;1026873;28;20041;-73
2024/03/23 00:20:09;;;;;;;3.03;2.40;;;;;;;9.74;100.00;95395.53;1023731;28;20081;-72
2024/03/23 00:20:40;;;;;;;3.35;2.22;;;;;;;9.76;100.00;95393.41;1028905;28;20019;-73
2024/03/23 00:21:12;;;;;;;3.35;2.20;;;;;;;9.81;100.00;95398.66;1034953;28;20077;-73
2024/03/23 00:21:43;;;;;;;6.30;2.10;;;;;;;9.85;100.00;95397.06;1033481;28;20036;-72
2024/03/23 00:22:15;;;;;;;3.30;2.13;;;;;;;9.79;100.00;95392.91;1030777;28;20026;-73
2024/03/23 00:22:46;;;;;;;5.63;2.30;;;;;;;9.84;100.00;95395.53;1022891;28;20033;-73
2024/03/23 00:23:18;;;;;;;3.95;2.45;;;;;;;9.84;100.00;95385.81;1022810;29;20059;-72
2024/03/23 00:23:49;;;;;;;7.15;2.45;;;;;;;9.87;100.00;95387.91;1023091;28;20031;-72
2024/03/23 00:24:21;;;;;;;4.82;1.95;;;;;;;9.89;100.00;95387.63;1030980;28;20022;-73
2024/03/23 00:24:52;;;;;;;2.58;2.25;;;;;;;9.86;100.00;95388.19;1030891;28;20113;-73
2024/03/23 00:25:23;;;;;;;4.35;2.33;;;;;;;9.82;100.00;95385.28;1035099;28;20021;-72
2024/03/23 00:25:55;;;;;;;2.75;1.98;;;;;;;9.78;100.00;95386.88;1036980;28;20029;-73
2024/03/23 00:26:26;;;;;;;3.30;2.30;;;;;;;9.74;100.00;95385.84;1031016;28;20041;-73
2024/03/23 00:26:58;;;;;;;4.70;2.60;;;;;;;9.68;100.00;95382.44;1026816;28;20053;-72
2024/03/23 00:27:31;;;;;;;2.60;2.25;;;;;;;9.65;100.00;95382.97;1026626;28;20161;-73
2024/03/23 00:28:02;;;;;;;5.80;2.20;;;;;;;9.65;100.00;95387.41;1027371;28;20028;-72
2024/03/23 00:28:34;;;;;;;4.90;2.78;;;;;;;9.64;100.00;95389.25;1034660;28;20299;-72
2024/03/23 00:29:05;;;;;;;4.43;2.58;;;;;;;9.64;100.00;95381.41;1034598;28;20017;-72
2024/03/23 00:29:36;;;;;;;6.18;2.85;;;;;;;9.60;100.00;95380.38;1039109;28;20522;-72
2024/03/23 00:30:08;;;;;;;5.55;2.33;;;;;;;9.56;100.00;95389.81;1038857;28;20439;-73
2024/03/23 00:30:40;;;;;;;2.55;2.13;;;;;;;9.59;100.00;95388.47;1039022;28;20084;-72
2024/03/23 00:31:11;;;;;;;5.40;2.30;;;;;;;9.60;100.00;95385.59;1042749;28;20108;-72
2024/03/23 00:31:42;;;;;;;4.53;2.55;;;;;;;9.57;100.00;95383.50;1038963;28;20507;-72
2024/03/23 00:32:14;;;;;;;4.47;2.10;;;;;;;9.53;100.00;95379.84;1043087;28;20104;-72
2024/03/23 00:32:46;;;;;;;4.90;2.55;;;;;;;9.52;100.00;95387.97;1038654;28;20102;-72
2024/03/23 00:33:19;;;;;;;4.07;2.53;;;;;;;9.53;100.00;95385.09;1030641;28;20022;-72
2024/03/23 00:33:50;;;;;;;6.32;2.38;;;;;;;9.53;100.00;95385.09;1030891;28;20130;-72
2024/03/23 00:34:22;;;;;;;3.50;2.42;;;;;;;9.49;100.00;95384.06;1030983;28;20022;-72
2024/03/23 00:34:53;;;;;;;4.43;2.20;;;;;;;9.49;100.00;95384.06;1031159;28;20062;-72
2024/03/23 00:35:24;;;;;;;6.22;2.42;;;;;;;9.49;100.00;95384.06;1038976;28;20026;-72
2024/03/23 00:35:56;;;;;;;2.65;1.80;;;;;;;9.47;100.00;95386.16;1034640;28;20022;-72
2024/03/23 00:36:28;;;;;;;3.50;2.47;;;;;;;9.43;100.00;95385.13;1031051;28;20507;-72
2024/03/23 00:36:59;;;;;;;2.88;2.30;;;;;;;9.51;100.00;95381.94;1034685;28;20149;-72
2024/03/23 00:37:31;;;;;;;2.72;2.30;;;;;;;9.49;100.00;95384.06;1030882;28;20010;-72
2024/03/23 00:38:02;;;;;;;3.28;2.13;;;;;;;9.49;100.00;95378.81;1030913;28;20019;-72
2024/03/23 00:38:34;;;;;;;5.43;2.22;;;;;;;9.49;100.00;95384.06;1038264;28;20497;-72
2024/03/23 00:39:05;;;;;;;4.03;2.45;;;;;;;9.51;100.00;95381.94;1039280;28;20431;-72
2024/03/23 00:39:37;;;;;;;3.60;2.38;;;;;;;9.53;100.00;95374.63;1042992;28;20013;-72
2024/03/23 00:40:09;;;;;;;2.45;2.13;;;;;;;9.51;100.00;95381.94;1046702;28;20016;-72
2024/03/23 00:40:40;;;;;;;4.32;2.63;;;;;;;9.56;100.00;95389.03;1038997;28;20099;-72
2024/03/23 00:41:12;;;;;;;4.32;2.33;;;;;;;9.55;100.00;95377.75;1038620;28;20475;-72
2024/03/23 00:41:43;;;;;;;4.18;2.35;;;;;;;9.55;100.00;95375.13;1034584;28;20455;-72
2024/03/23 00:42:15;;;;;;;2.72;2.28;;;;;;;9.54;100.00;95370.94;1035565;28;20022;-73
2024/03/23 00:42:46;;;;;;;8.48;2.70;;;;;;;9.56;100.00;95373.31;1039962;28;20037;-72
2024/03/23 00:43:17;;;;;;;3.20;2.25;;;;;;;9.53;100.00;95369.38;1040478;28;20033;-72
2024/03/23 00:43:49;;;;;;;2.75;2.38;;;;;;;9.49;100.00;95372.78;1040407;28;20040;-72
2024/03/23 00:44:20;;;;;;;3.90;2.03;;;;;;;9.45;100.00;95372.53;1032000;28;20045;-72
2024/03/23 00:44:52;;;;;;;3.13;2.17;;;;;;;9.44;100.00;95370.97;1032366;28;20495;-72
2024/03/23 00:45:23;;;;;;;3.42;2.22;;;;;;;9.43;100.00;95372.81;1028006;28;20619;-72
2024/03/23 00:45:55;;;;;;;6.28;2.50;;;;;;;9.43;100.00;95372.03;1028524;28;20050;-72
2024/03/23 00:46:26;;;;;;;3.28;2.53;;;;;;;9.39;100.00;95371.75;1031821;28;20530;-71
2024/03/23 00:46:58;;;;;;;4.43;2.20;;;;;;;9.38;100.00;95370.16;1032300;28;20026;-72
2024/03/23 00:47:29;;;;;;;5.57;2.40;;;;;;;9.39;100.00;95370.97;1036272;28;20029;-72
2024/03/23 00:48:00;;;;;;;3.88;2.25;;;;;;;9.43;100.00;95369.41;1037805;28;20022;-72
2024/03/23 00:48:32;;;;;;;2.92;1.98;;;;;;;9.46;100.00;95363.63;1040558;28;20021;-72
2024/03/23 00:49:03;;;;;;;5.65;2.60;;;;;;;9.44;100.00;95373.56;1036944;28;20633;-72
2024/03/23 00:49:35;;;;;;;2.13;1.73;;;;;;;9.44;100.00;95365.72;1037585;28;20022;-73
2024/03/23 00:50:06;;;;;;;3.72;2.50;;;;;;;9.39;100.00;95369.16;1041061;28;20033;-72
2024/03/23 00:50:38;;;;;;;2.35;2.10;;;;;;;9.36;100.00;95374.13;1036817;28;20026;-72
2024/03/23 00:51:09;;;;;;;4.70;2.60;;;;;;;9.35;100.00;95365.47;1040521;28;20022;-72
2024/03/23 00:51:41;;;;;;;5.20;1.90;;;;;;;9.36;100.00;95364.44;1032300;28;20477;-72
2024/03/23 00:52:12;;;;;;;2.92;2.00;;;;;;;9.36;100.00;95368.88;1032176;28;20101;-72
2024/03/23 00:52:43;;;;;;;3.65;2.35;;;;;;;9.37;100.00;95355.53;1036681;28;20549;-72
2024/03/23 00:53:17;;;;;;;3.38;2.42;;;;;;;9.38;100.00;95367.56;1039390;28;20037;-72
2024/03/23 00:53:48;;;;;;;7.63;2.25;;;;;;;9.33;100.00;95364.94;1040123;28;20670;-72
2024/03/23 00:54:19;;;;;;;5.43;2.67;;;;;;;9.32;100.00;95366.00;1032078;28;20037;-73
2024/03/23 00:54:49;;;;;;;6.50;2.28;;;;;;;9.30;100.00;95362.09;1031862;28;20030;-72
2024/03/23 00:55:20;;;;;;;2.47;2.00;;;;;;;9.28;100.00;95364.16;1028652;28;20535;-72
2024/03/23 00:55:50;;;;;;;3.28;2.10;;;;;;;9.27;100.00;95365.22;1032324;28;20073;-72
2024/03/23 00:56:21;;;;;;;5.15;2.15;;;;;;;9.14;100.00;95354.22;1035867;28;20026;-72
2024/03/23 00:56:53;;;;;;;2.72;2.08;;;;;;;9.19;100.00;95354.22;1027075;28;20029;-72
2024/03/23 00:57:23;;;;;;;3.25;2.10;;;;;;;9.24;100.00;95360.50;1024026;29;20110;-72
2024/03/23 00:57:54;;;;;;;3.80;2.42;;;;;;;9.15;100.00;95352.38;1023960;29;20046;-72
2024/03/23 00:58:24;;;;;;;3.08;2.05;;;;;;;9.18;100.00;95357.09;1031793;28;20053;-72
2024/03/23 00:58:55;;;;;;;2.97;2.10;;;;;;;9.14;100.00;95359.47;1031983;28;20026;-72
2024/03/23 00:59:28;;;;;;;2.78;2.08;;;;;;;9.11;100.00;95357.38;1036222;28;20030;-72
2024/03/23 00:59:58;;;;;;;2.83;2.05;;;;;;;9.11;100.00;95365.22;1031684;28;20496;-72
2024/03/23 01:00:29;;;;;;;2.53;2.22;;;;;;;9.10;100.00;95361.03;1030960;28;20030;-72
2024/03/23 01:00:59;;;;;;;3.47;2.20;;;;;;;9.06;100.00;95360.00;1032217;28;20058;-73
2024/03/23 01:01:30;;;;;;;2.85;2.00;;;;;;;9.04;100.00;95362.06;1028612;28;20034;-72
2024/03/23 01:02:00;;;;;;;2.90;2.10;;;;;;;9.04;100.00;95356.06;1031765;28;20026;-72
2024/03/23 01:02:30;;;;;;;7.68;2.53;;;;;;;9.01;100.00;95359.97;1036273;28;20033;-72
2024/03/23 01:03:01;;;;;;;2.90;2.47;;;;;;;8.98;100.00;95358.66;1032102;28;20274;-71
2024/03/23 01:03:31;;;;;;;3.25;2.20;;;;;;;8.98;100.00;95363.13;1032056;28;20518;-72
2024/03/23 01:04:02;;;;;;;5.60;2.15;;;;;;;8.97;100.00;95362.34;1024186;29;20085;-72
2024/03/23 01:04:33;;;;;;;3.83;2.50;;;;;;;8.95;100.00;95358.41;1019904;29;20019;-72
2024/03/23 01:05:04;;;;;;;3.97;2.35;;;;;;;8.96;100.00;95352.16;1020707;28;20031;-73
2024/03/23 01:05:34;;;;;;;3.58;1.85;;;;;;;8.92;100.00;95358.91;1024421;28;20031;-72
2024/03/23 01:06:05;;;;;;;3.28;2.30;;;;;;;8.91;100.00;95349.50;1024123;28;20083;-72
2024/03/23 01:06:36;;;;;;;3.10;2.13;;;;;;;8.87;100.00;95351.88;1032099;28;20028;-72
2024/03/23 01:07:06;;;;;;;5.70;2.33;;;;;;;8.89;100.00;95346.38;1031944;28;20081;-71
2024/03/23 01:07:36;;;;;;;4.38;2.13;;;;;;;8.88;100.00;95347.41;1036429;28;20026;-72
2024/03/23 01:08:07;;;;;;;3.15;2.20;;;;;;;8.87;100.00;95345.84;1039574;28;20037;-72
2024/03/23 01:08:37;;;;;;;4.68;2.38;;;;;;;8.86;100.00;95352.13;1031282;28;20022;-73
2024/03/23 01:09:10;;;;;;;5.43;2.70;;;;;;;8.83;100.00;95355.28;1032081;28;20113;-72
2024/03/23 01:09:41;;;;;;;4.70;2.05;;;;;;;8.81;100.00;95354.75;1032438;28;20033;-72
2024/03/23 01:10:11;;;;;;;2.92;2.10;;;;;;;8.80;100.00;95355.78;1032773;28;20033;-72
2024/03/23 01:10:41;;;;;;;3.50;1.98;;;;;;;8.61;100.00;95337.19;1035956;28;20156;-72
2024/03/23 01:11:12;;;;;;;3.75;2.30;;;;;;;8.77;100.00;95357.09;1036132;28;20061;-72
2024/03/23 01:11:42;;;;;;;5.30;2.25;;;;;;;8.77;100.00;95364.16;1032103;28;20042;-71
2024/03/23 01:12:13;;;;;;;4.47;2.55;;;;;;;8.74;100.00;95347.94;1032165;28;20026;-72
2024/03/23 01:12:43;;;;;;;2.92;2.10;;;;;;;8.77;100.00;95357.09;1028039;28;20041;-72
2024/03/23 01:13:14;;;;;;;5.55;2.50;;;;;;;8.76;100.00;95354.75;1028321;28;20630;-71
2024/03/23 01:13:44;;;;;;;2.42;2.20;;;;;;;8.76;100.00;95352.13;1032033;28;20085;-71
2024/03/23 01:14:15;;;;;;;3.45;1.98;;;;;;;8.73;100.00;95354.22;1032138;28;20507;-72
2024/03/23 01:14:45;;;;;;;3.65;2.35;;;;;;;8.70;100.00;95346.88;1040264;28;20616;-72
2024/03/23 01:15:16;;;;;;;3.65;2.28;;;;;;;8.71;100.00;95350.28;1036060;28;20026;-72
2024/03/23 01:15:49;;;;;;;3.00;2.35;;;;;;;8.70;100.00;95349.50;1036074;28;20057;-72
2024/03/23 01:16:19;;;;;;;3.40;1.83;;;;;;;8.68;100.00;95346.34;1036265;28;20109;-72
2024/03/23 01:16:49;;;;;;;2.60;2.25;;;;;;;8.67;100.00;95347.41;1038367;28;20064;-72
2024/03/23 01:17:20;;;;;;;2.90;2.38;;;;;;;8.66;100.00;95355.50;1037919;28;20045;-72
2024/03/23 01:17:50;;;;;;;5.60;2.40;;;;;;;8.64;100.00;95344.53;1036679;28;20482;-72
2024/03/23 01:18:21;;;;;;;4.90;2.25;;;;;;;8.61;100.00;95348.44;1039508;28;20399;-71
2024/03/23 01:18:52;;;;;;;4.13;2.45;;;;;;;8.60;100.00;95351.31;1035711;28;20094;-71
2024/03/23 01:19:22;;;;;;;4.88;2.10;;;;;;;8.60;100.00;95349.47;1029090;28;20023;-71
2024/03/23 01:19:53;;;;;;;3.53;2.13;;;;;;;8.60;100.00;95346.88;1031980;28;20034;-71
2024/03/23 01:20:23;;;;;;;6.35;2.42;;;;;;;8.61;100.00;95352.88;1032000;28;20038;-72
2024/03/23 01:20:54;;;;;;;3.92;2.30;;;;;;;8.57;100.00;95336.91;1031245;28;20045;-72
2024/03/23 01:21:24;;;;;;;6.22;2.53;;;;;;;8.66;100.00;95350.28;1032037;28;20019;-72
2024/03/23 01:21:54;;;;;;;2.58;1.77;;;;;;;8.67;100.00;95349.22;1016046;29;20505;-72
2024/03/23 01:22:25;;;;;;;3.55;2.05;;;;;;;8.65;100.00;95346.88;1019117;29;20032;-72
2024/03/23 01:22:55;;;;;;;6.22;2.17;;;;;;;8.66;100.00;95345.84;1024306;29;20058;-72
2024/03/23 01:23:26;;;;;;;3.15;1.80;;;;;;;8.67;100.00;95351.84;1024049;28;20015;-72
2024/03/23 01:23:56;;;;;;;3.78;2.10;;;;;;;8.57;100.00;95342.16;1035696;28;20022;-72
2024/03/23 01:24:27;;;;;;;2.80;2.15;;;;;;;8.59;100.00;95350.53;1027788;28;20109;-72
2024/03/23 01:24:57;;;;;;;4.60;2.20;;;;;;;8.63;100.00;95348.97;1032179;28;20133;-72
2024/03/23 01:25:28;;;;;;;2.95;1.98;;;;;;;8.66;100.00;95351.06;1024328;28;20059;-72
2024/03/23 01:25:58;;;;;;;3.67;2.28;;;;;;;8.68;100.00;95343.72;1019929;29;20597;-71
2024/03/23 01:26:28;;;;;;;2.65;2.35;;;;;;;8.74;100.00;95337.47;1023937;29;20425;-73
2024/03/23 01:26:59;;;;;;;3.95;2.13;;;;;;;8.81;100.00;95346.88;1020275;28;20024;-72
2024/03/23 01:27:29;;;;;;;3.25;1.95;;;;;;;8.80;100.00;95347.94;1028989;28;20428;-72
2024/03/23 01:28:00;;;;;;;3.45;2.28;;;;;;;8.86;100.00;95339.06;1031903;28;20015;-71
2024/03/23 01:28:30;;;;;;;3.58;2.42;;;;;;;8.91;100.00;95346.91;1035567;28;20054;-71
2024/03/23 01:29:01;;;;;;;3.22;2.20;;;;;;;8.85;100.00;95345.31;1031911;28;20045;-72
2024/03/23 01:29:31;;;;;;;6.47;2.28;;;;;;;8.79;100.00;95328.84;1032281;28;20081;-72
2024/03/23 01:30:02;;;;;;;3.28;2.13;;;;;;;8.86;100.00;95337.22;1031982;28;20022;-72
2024/03/23 01:30:33;;;;;;;3.45;2.25;;;;;;;8.84;100.00;95341.91;1027916;28;20197;-72
2024/03/23 01:31:03;;;;;;;3.25;1.98;;;;;;;8.82;100.00;95330.13;1024303;28;20468;-72
2024/03/23 01:31:34;;;;;;;2.72;1.90;;;;;;;8.79;100.00;95335.91;1027888;28;20030;-72
2024/03/23 01:32:05;;;;;;;3.22;2.00;;;;;;;8.81;100.00;95337.19;1027548;28;20027;-72
2024/03/23 01:32:35;;;;;;;3.83;2.05;;;;;;;8.84;100.00;95339.31;1027946;28;20054;-72
2024/03/23 01:33:06;;;;;;;4.05;2.20;;;;;;;8.84;100.00;95338.53;1028328;28;20062;-72
2024/03/23 01:33:36;;;;;;;2.42;1.80;;;;;;;8.82;100.00;95340.59;1036339;28;20014;-71
2024/03/23 01:34:07;;;;;;;3.38;1.85;;;;;;;8.79;100.00;95328.06;1040567;28;20025;-72
2024/03/23 01:34:38;;;;;;;5.25;2.05;;;;;;;8.84;100.00;95344.53;1040093;28;20129;-72
2024/03/23 01:35:08;;;;;;;4.07;1.70;;;;;;;8.83;100.00;95332.50;1040423;28;20025;-72
2024/03/23 01:35:39;;;;;;;4.65;2.10;;;;;;;8.80;100.00;95332.25;1039990;28;20032;-72
2024/03/23 01:36:09;;;;;;;3.10;2.05;;;;;;;8.81;100.00;95337.19;1031616;28;20029;-72
2024/03/23 01:36:40;;;;;;;3.90;1.85;;;;;;;8.78;100.00;95336.94;1024183;29;20034;-72
2024/03/23 01:37:10;;;;;;;2.40;1.85;;;;;;;8.69;100.00;95327.00;1020014;29;20055;-72
2024/03/23 01:37:40;;;;;;;3.53;1.88;;;;;;;8.79;100.00;95325.47;1027943;28;20503;-72
2024/03/23 01:38:11;;;;;;;2.38;1.80;;;;;;;8.83;100.00;95324.66;1028012;28;20027;-72
2024/03/23 01:38:41;;;;;;;2.28;1.92;;;;;;;8.77;100.00;95330.94;1023374;29;20086;-71
2024/03/23 01:39:14;;;;;;;3.00;2.05;;;;;;;8.75;100.00;95338.25;1020339;29;20023;-72
2024/03/23 01:39:44;;;;;;;2.75;1.98;;;;;;;8.72;100.00;95334.34;1024188;28;20354;-72
2024/03/23 01:40:16;;;;;;;3.20;2.15;;;;;;;8.65;100.00;95320.72;1028399;28;20023;-72
2024/03/23 01:40:46;;;;;;;2.35;1.90;;;;;;;8.68;100.00;95328.03;1032187;28;20022;-72
2024/03/23 01:41:17;;;;;;;3.50;2.17;;;;;;;8.70;100.00;95333.81;1027968;28;20054;-72
2024/03/23 01:41:48;;;;;;;2.63;1.80;;;;;;;8.73;100.00;95330.66;1028008;28;20026;-71
2024/03/23 01:42:18;;;;;;;3.38;2.05;;;;;;;8.71;100.00;95337.97;1024145;28;20396;-72
2024/03/23 01:42:55;;;;;;;2.53;1.85;;;;;;;8.75;100.00;95330.41;1019977;29;20031;-71
2024/03/23 01:43:26;;;;;;;4.25;2.20;;;;;;;8.74;100.00;95334.06;1021276;29;20038;-72
2024/03/23 01:43:57;;;;;;;5.78;2.65;;;;;;;8.75;100.00;95327.78;1024809;28;20030;-72
2024/03/23 01:44:27;;;;;;;2.60;1.80;;;;;;;8.73;100.00;95337.75;1029928;28;20507;-73
2024/03/23 01:44:58;;;;;;;2.78;2.10;;;;;;;8.69;100.00;95327.00;1028384;28;20046;-72
2024/03/23 01:45:29;;;;;;;5.80;2.45;;;;;;;8.67;100.00;95326.47;1028053;28;20030;-71
2024/03/23 01:45:59;;;;;;;2.80;2.10;;;;;;;8.65;100.00;95335.63;1028030;28;20062;-72
2024/03/23 01:46:30;;;;;;;7.05;2.13;;;;;;;8.55;100.00;95322.53;1024059;28;20200;-72
2024/03/23 01:47:00;;;;;;;3.38;2.15;;;;;;;8.65;100.00;95336.44;1028102;28;20018;-72
2024/03/23 01:47:31;;;;;;;3.75;2.20;;;;;;;8.65;100.00;95331.19;1024129;29;20493;-72
2024/03/23 01:48:02;;;;;;;3.40;1.83;;;;;;;8.63;100.00;95330.66;1023714;28;20027;-72
2024/03/23 01:48:33;;;;;;;4.63;2.13;;;;;;;8.67;100.00;95329.09;1019658;29;20028;-72
2024/03/23 01:49:06;;;;;;;2.95;2.08;;;;;;;8.67;100.00;95326.47;1024422;28;20034;-72
2024/03/23 01:49:37;;;;;;;2.75;1.80;;;;;;;8.66;100.00;95324.13;1024461;28;20039;-72
2024/03/23 01:50:07;;;;;;;4.32;2.33;;;;;;;8.69;100.00;95331.47;1020652;29;20438;-72
2024/03/23 01:50:38;;;;;;;2.53;1.85;;;;;;;8.64;100.00;95320.97;1020466;29;20110;-72
2024/03/23 01:51:08;;;;;;;3.08;2.15;;;;;;;8.65;100.00;95319.94;1020021;29;20140;-72
2024/03/23 01:51:39;;;;;;;4.07;1.92;;;;;;;8.65;100.00;95323.34;1020582;28;20019;-72
2024/03/23 01:52:09;;;;;;;4.43;1.80;;;;;;;8.62;100.00;95318.63;1024029;28;20023;-71
2024/03/23 01:52:40;;;;;;;2.75;1.80;;;;;;;8.63;100.00;95314.97;1031904;28;20022;-72
2024/03/23 01:53:11;;;;;;;2.83;2.00;;;;;;;8.62;100.00;95318.63;1032002;28;20026;-72
2024/03/23 01:53:41;;;;;;;3.00;2.00;;;;;;;8.66;100.00;95324.91;1023854;28;20386;-72
2024/03/23 01:54:11;;;;;;;5.65;2.40;;;;;;;8.66;100.00;95322.28;1022765;29;20015;-72
2024/03/23 01:54:42;;;;;;;1.92;1.60;;;;;;;8.65;100.00;95325.16;1022628;28;20027;-71
2024/03/23 01:55:12;;;;;;;2.47;2.13;;;;;;;8.64;100.00;95316.53;1023233;29;20027;-72
2024/03/23 01:55:43;;;;;;;3.35;1.90;;;;;;;8.60;100.00;95310.25;1023574;28;20035;-72
2024/03/23 01:56:14;;;;;;;2.30;2.10;;;;;;;8.61;100.00;95318.88;1035277;28;20017;-72
2024/03/23 01:56:44;;;;;;;2.78;1.70;;;;;;;8.62;100.00;95318.63;1030823;28;20046;-71
2024/03/23 01:57:15;;;;;;;2.35;1.90;;;;;;;8.55;100.00;95306.84;1027471;28;20535;-72
2024/03/23 01:57:45;;;;;;;2.45;2.10;;;;;;;8.59;100.00;95313.94;1023110;29;20027;-70
2024/03/23 01:58:15;;;;;;;2.78;2.00;;;;;;;8.60;100.00;95309.47;1027371;28;20042;-71
2024/03/23 01:58:46;;;;;;;4.03;1.95;;;;;;;8.60;100.00;95310.25;1029081;28;20037;-72
2024/03/23 01:59:16;;;;;;;5.22;1.73;;;;;;;8.58;100.00;95308.94;1027228;28;20019;-72
2024/03/23 01:59:47;;;;;;;4.88;2.15;;;;;;;8.61;100.00;95311.03;1027523;28;20057;-71
2024/03/23 02:00:18;;;;;;;4.20;2.22;;;;;;;8.60;100.00;95304.25;1031086;28;20018;-72
2024/03/23 02:00:48;;;;;;;3.55;1.88;;;;;;;8.61;100.00;95311.03;1035068;28;20040;-72
2024/03/23 02:01:19;;;;;;;1.95;1.60;;;;;;;8.56;100.00;95303.97;1035250;28;20419;-72
2024/03/23 02:01:49;;;;;;;4.82;1.85;;;;;;;8.60;100.00;95310.25;1023305;28;20050;-71
2024/03/23 02:02:20;;;;;;;2.05;1.52;;;;;;;8.61;100.00;95306.59;1023403;28;20015;-71
2024/03/23 02:02:50;;;;;;;2.90;2.25;;;;;;;8.62;100.00;95304.78;1023204;29;20117;-72
2024/03/23 02:03:25;;;;;;;3.45;2.38;;;;;;;8.57;100.00;95296.91;1019379;28;20042;-71
2024/03/23 02:03:55;;;;;;;3.40;2.50;;;;;;;8.59;100.00;95300.84;1027739;28;20075;-70
2024/03/23 02:04:26;;;;;;;2.35;1.90;;;;;;;8.61;100.00;95303.97;1032533;28;20388;-71
2024/03/23 02:04:56;;;;;;;2.15;1.95;;;;;;;8.58;100.00;95301.88;1035684;28;20635;-72
2024/03/23 02:05:27;;;;;;;3.13;1.95;;;;;;;8.58;100.00;95296.63;1035286;28;20111;-72
2024/03/23 02:05:58;;;;;;;3.67;1.88;;;;;;;8.60;100.00;95299.00;1035243;28;20041;-71
2024/03/23 02:06:28;;;;;;;3.28;2.28;;;;;;;8.63;100.00;95301.88;1031500;28;20246;-72
2024/03/23 02:06:59;;;;;;;2.22;1.77;;;;;;;8.59;100.00;95298.22;1035077;28;20116;-72
2024/03/23 02:07:29;;;;;;;2.58;2.00;;;;;;;8.61;100.00;95296.13;1031313;28;20109;-72
2024/03/23 02:08:00;;;;;;;2.20;1.85;;;;;;;8.59;100.00;95295.63;1023463;28;20171;-72
2024/03/23 02:08:30;;;;;;;3.67;2.20;;;;;;;8.65;100.00;95296.38;1029788;28;20432;-71
2024/03/23 02:09:01;;;;;;;5.70;2.28;;;;;;;8.69;100.00;95293.00;1034985;28;20030;-71
2024/03/23 02:09:31;;;;;;;3.00;1.90;;;;;;;8.69;100.00;95287.78;1035509;28;20082;-71
2024/03/23 02:10:02;;;;;;;3.95;2.22;;;;;;;8.72;100.00;95281.25;1027435;28;20019;-72
2024/03/23 02:10:32;;;;;;;5.13;2.60;;;;;;;8.68;100.00;95294.03;1027316;28;20097;-72
2024/03/23 02:11:03;;;;;;;3.42;2.17;;;;;;;8.68;100.00;95291.41;1023179;29;20225;-71
2024/03/23 02:11:33;;;;;;;4.20;2.20;;;;;;;8.72;100.00;95287.25;1027389;28;20030;-71
2024/03/23 02:12:04;;;;;;;7.18;2.10;;;;;;;8.69;100.00;95290.38;1035584;28;20128;-71
2024/03/23 02:12:34;;;;;;;5.60;2.22;;;;;;;8.70;100.00;95285.94;1039306;28;20026;-72
2024/03/23 02:13:05;;;;;;;5.25;2.00;;;;;;;8.69;100.00;95287.78;1035246;28;20490;-72
2024/03/23 02:13:35;;;;;;;3.22;1.98;;;;;;;8.65;100.00;95278.06;1031371;28;20018;-72
2024/03/23 02:14:07;;;;;;;4.22;2.42;;;;;;;8.73;100.00;95283.59;1031161;28;20037;-71
2024/03/23 02:14:38;;;;;;;3.25;1.88;;;;;;;8.64;100.00;95284.38;1027240;28;20121;-72
2024/03/23 02:15:08;;;;;;;3.95;1.92;;;;;;;8.66;100.00;95292.75;1023479;28;20023;-71
2024/03/23 02:15:39;;;;;;;4.35;2.50;;;;;;;8.68;100.00;95288.81;1027342;28;20066;-71
2024/03/23 02:16:09;;;;;;;7.13;2.22;;;;;;;8.65;100.00;95276.28;1031939;28;20498;-72
2024/03/23 02:16:41;;;;;;;6.55;2.20;;;;;;;8.66;100.00;95288.28;1031472;28;20475;-71
2024/03/23 02:17:11;;;;;;;2.53;1.70;;;;;;;8.65;100.00;95286.72;1034765;28;20100;-71
2024/03/23 02:17:42;;;;;;;2.50;2.00;;;;;;;8.64;100.00;95284.38;1035311;28;20021;-71
2024/03/23 02:18:12;;;;;;;4.97;2.33;;;;;;;8.61;100.00;95285.66;1035520;28;20030;-70
2024/03/23 02:18:43;;;;;;;3.05;2.03;;;;;;;8.62;100.00;95284.63;1037443;28;20017;-73
2024/03/23 02:19:13;;;;;;;5.30;2.35;;;;;;;8.63;100.00;95288.03;1031946;28;20182;-72
2024/03/23 02:19:44;;;;;;;4.60;2.20;;;;;;;8.61;100.00;95283.03;1027149;28;20068;-72
2024/03/23 02:20:14;;;;;;;3.33;2.05;;;;;;;8.57;100.00;95276.00;1027331;28;20023;-71
2024/03/23 02:20:45;;;;;;;4.30;2.45;;;;;;;8.58;100.00;95293.25;1032779;28;20469;-72
2024/03/23 02:21:15;;;;;;;4.53;2.15;;;;;;;8.44;100.00;95261.59;1035251;28;20021;-72
2024/03/23 02:21:47;;;;;;;4.32;2.10;;;;;;;8.55;100.00;95276.28;1031310;28;20443;-72
2024/03/23 02:22:17;;;;;;;4.00;2.00;;;;;;;8.58;100.00;95275.72;1027142;28;20046;-71
2024/03/23 02:22:51;;;;;;;4.30;2.25;;;;;;;8.52;100.00;95271.56;1029959;28;20030;-68
2024/03/23 02:23:21;;;;;;;4.15;2.17;;;;;;;8.56;100.00;95277.81;1027149;28;20492;-72
2024/03/23 02:23:52;;;;;;;4.03;2.15;;;;;;;8.55;100.00;95286.72;1026546;28;20023;-71
2024/03/23 02:24:22;;;;;;;2.88;1.95;;;;;;;8.54;100.00;95281.75;1028124;28;20061;-72
2024/03/23 02:24:52;;;;;;;3.40;2.15;;;;;;;8.50;100.00;95281.47;1035551;28;20093;-72
2024/03/23 02:25:23;;;;;;;3.95;2.10;;;;;;;8.50;100.00;95273.63;1027406;28;20035;-72
2024/03/23 02:25:53;;;;;;;3.15;2.40;;;;;;;8.46;100.00;95268.16;1031574;28;20045;-70